createdAt,value
2018-07-14T00:00:47.548Z,99.90
2018-07-14T00:03:16.368Z,99.90
2018-07-14T00:05:45.191Z,99.90
2018-07-14T00:08:14.019Z,99.90
2018-07-14T00:10:42.833Z,99.90
2018-07-14T00:13:11.643Z,99.90
2018-07-14T00:15:40.540Z,99.90
2018-07-14T00:18:09.367Z,99.90
2018-07-14T00:20:38.707Z,99.90
2018-07-14T00:23:07.728Z,99.90
2018-07-14T00:25:41.840Z,99.90
2018-07-14T00:28:10.689Z,99.90
2018-07-14T00:33:08.071Z,99.90
2018-07-14T00:35:36.884Z,99.90
2018-07-14T00:38:05.873Z,99.90
2018-07-14T00:40:34.763Z,99.90
2018-07-14T00:43:03.596Z,99.90
2018-07-14T00:45:32.404Z,99.90
2018-07-14T00:48:01.214Z,99.90
2018-07-14T00:50:30.026Z,99.90
2018-07-14T00:52:58.837Z,99.90
2018-07-14T00:55:27.695Z,99.90
2018-07-14T00:57:56.521Z,99.90
2018-07-14T01:00:25.335Z,99.90
2018-07-14T01:02:54.166Z,99.90
2018-07-14T01:05:23.691Z,99.90
2018-07-14T01:07:52.516Z,99.90
2018-07-14T01:10:21.322Z,99.90
2018-07-14T01:12:50.149Z,99.90
2018-07-14T01:15:19.005Z,99.90
2018-07-14T01:17:47.857Z,99.90
2018-07-14T01:20:16.654Z,99.90
2018-07-14T01:22:45.466Z,99.90
2018-07-14T01:25:14.288Z,99.90
2018-07-14T01:27:43.123Z,99.90
2018-07-14T01:30:12.054Z,99.90
2018-07-14T01:32:40.855Z,99.90
2018-07-14T01:35:09.671Z,99.90
2018-07-14T01:37:38.472Z,99.90
2018-07-14T01:42:35.897Z,99.90
2018-07-14T01:45:04.746Z,99.90
2018-07-14T01:47:33.567Z,99.90
2018-07-14T01:50:03.179Z,99.90
2018-07-14T01:52:32.063Z,99.90
2018-07-14T01:55:01.312Z,99.90
2018-07-14T01:57:31.426Z,99.90
2018-07-14T02:00:00.814Z,99.90
2018-07-14T02:02:30.746Z,99.90
2018-07-14T02:04:59.553Z,99.90
2018-07-14T02:07:28.375Z,99.90
2018-07-14T02:09:57.199Z,99.90
2018-07-14T02:12:26.007Z,99.90
2018-07-14T02:14:54.821Z,99.90
2018-07-14T02:17:23.723Z,99.90
2018-07-14T02:19:52.570Z,99.90
2018-07-14T02:22:21.399Z,99.90
2018-07-14T02:24:50.235Z,99.90
2018-07-14T02:27:19.069Z,99.90
2018-07-14T02:29:47.887Z,99.90
2018-07-14T02:32:16.730Z,99.90
2018-07-14T02:34:45.541Z,99.90
2018-07-14T02:37:14.343Z,99.90
2018-07-14T02:39:43.181Z,99.90
2018-07-14T02:42:11.985Z,99.90
2018-07-14T02:44:40.824Z,99.90
2018-07-14T02:47:09.655Z,99.90
2018-07-14T02:49:38.478Z,99.90
2018-07-14T02:52:07.292Z,99.90
2018-07-14T02:54:36.112Z,99.90
2018-07-14T02:57:04.934Z,99.90
2018-07-14T02:59:33.759Z,99.90
2018-07-14T03:02:02.572Z,99.90
2018-07-14T03:04:31.384Z,99.90
2018-07-14T03:07:00.215Z,99.90
2018-07-14T03:09:29.036Z,99.90
2018-07-14T03:11:57.846Z,99.90
2018-07-14T03:14:26.651Z,99.90
2018-07-14T03:16:55.454Z,99.90
2018-07-14T03:19:24.364Z,99.90
2018-07-14T03:21:53.321Z,99.90
2018-07-14T03:24:22.131Z,99.90
2018-07-14T03:26:50.940Z,99.90
2018-07-14T03:29:19.769Z,99.90
2018-07-14T03:31:48.701Z,99.90
2018-07-14T03:34:17.508Z,99.90
2018-07-14T03:36:46.442Z,99.90
2018-07-14T03:39:15.129Z,99.90
2018-07-14T03:41:43.956Z,99.90
2018-07-14T03:44:12.776Z,99.90
2018-07-14T03:46:41.595Z,99.90
2018-07-14T03:49:10.401Z,99.90
2018-07-14T03:51:39.213Z,99.90
2018-07-14T03:54:08.032Z,99.90
2018-07-14T03:56:36.855Z,99.90
2018-07-14T03:59:06.080Z,99.90
2018-07-14T04:01:34.903Z,99.90
2018-07-14T04:04:03.739Z,99.90
2018-07-14T04:06:32.685Z,99.90
2018-07-14T04:09:01.789Z,99.90
2018-07-14T04:11:31.244Z,99.90
2018-07-14T04:14:00.140Z,99.90
2018-07-14T04:16:28.979Z,99.90
2018-07-14T04:18:57.798Z,99.90
2018-07-14T04:21:26.606Z,99.90
2018-07-14T04:23:55.691Z,99.90
2018-07-14T04:26:24.515Z,99.90
2018-07-14T04:28:53.326Z,99.90
2018-07-14T04:31:22.138Z,99.90
2018-07-14T04:33:51.070Z,99.90
2018-07-14T04:36:19.892Z,99.90
2018-07-14T04:38:48.825Z,99.90
2018-07-14T04:41:17.693Z,99.90
2018-07-14T04:43:46.516Z,99.90
2018-07-14T04:46:15.329Z,99.90
2018-07-14T04:48:44.179Z,99.90
2018-07-14T04:51:13.074Z,99.90
2018-07-14T04:53:41.999Z,99.90
2018-07-14T04:56:10.988Z,99.90
2018-07-14T04:58:39.829Z,99.90
2018-07-14T05:01:08.658Z,99.90
2018-07-14T05:03:37.458Z,99.90
2018-07-14T05:06:06.574Z,99.90
2018-07-14T05:08:35.643Z,99.90
2018-07-14T05:11:04.483Z,99.90
2018-07-14T05:13:33.391Z,99.90
2018-07-14T05:16:02.263Z,99.90
2018-07-14T05:18:31.092Z,99.90
2018-07-14T05:23:28.525Z,99.90
2018-07-14T05:25:57.328Z,99.90
2018-07-14T05:28:26.179Z,99.90
2018-07-14T05:33:23.574Z,99.90
2018-07-14T05:35:52.475Z,99.90
2018-07-14T05:38:21.283Z,99.90
2018-07-14T05:40:50.107Z,99.90
2018-07-14T05:43:18.947Z,99.90
2018-07-14T05:45:47.762Z,99.90
2018-07-14T05:48:16.571Z,99.90
2018-07-14T05:50:45.388Z,99.90
2018-07-14T05:53:14.195Z,99.90
2018-07-14T05:55:43.015Z,99.90
2018-07-14T05:58:11.825Z,99.90
2018-07-14T06:00:40.640Z,99.90
2018-07-14T06:03:09.442Z,99.90
2018-07-14T06:05:38.265Z,99.90
2018-07-14T06:08:07.088Z,99.90
2018-07-14T06:10:35.910Z,97.50
2018-07-14T06:13:04.851Z,95.30
2018-07-14T06:15:33.662Z,90.60
2018-07-14T06:18:02.475Z,78.40
2018-07-14T06:20:31.295Z,69.20
2018-07-14T06:25:28.612Z,65.10
2018-07-14T06:27:57.443Z,67.40
2018-07-14T06:30:26.253Z,68.00
2018-07-14T06:32:55.085Z,69.50
2018-07-14T06:35:23.915Z,67.20
2018-07-14T06:37:52.719Z,69.10
2018-07-14T06:40:21.535Z,70.30
2018-07-14T06:42:50.337Z,66.60
2018-07-14T06:45:19.171Z,61.30
2018-07-14T06:47:48.009Z,60.80
2018-07-14T06:50:16.809Z,60.60
2018-07-14T06:52:45.636Z,58.40
2018-07-14T06:57:43.025Z,55.10
2018-07-14T07:00:11.837Z,55.00
2018-07-14T07:02:40.730Z,52.90
2018-07-14T07:05:09.559Z,50.00
2018-07-14T07:07:39.278Z,48.80
2018-07-14T07:12:37.248Z,46.20
2018-07-14T07:15:06.066Z,45.20
2018-07-14T07:17:35.090Z,44.40
2018-07-14T07:20:04.315Z,43.00
2018-07-14T07:22:33.123Z,43.50
2018-07-14T07:25:01.915Z,44.40
2018-07-14T07:27:30.854Z,45.40
2018-07-14T07:29:59.663Z,47.40
2018-07-14T07:32:28.479Z,47.60
2018-07-14T07:34:57.344Z,47.70
2018-07-14T07:37:26.157Z,48.30
2018-07-14T07:39:55.038Z,50.10
2018-07-14T07:42:23.913Z,52.10
2018-07-14T07:44:52.786Z,51.20
2018-07-14T07:47:21.662Z,52.70
2018-07-14T07:49:50.562Z,54.20
2018-07-14T07:52:19.605Z,55.40
2018-07-14T07:54:48.456Z,54.90
2018-07-14T07:57:17.267Z,54.00
2018-07-14T07:59:46.075Z,53.70
2018-07-14T08:02:14.884Z,53.60
2018-07-14T08:04:43.696Z,54.70
2018-07-14T08:07:12.582Z,54.80
2018-07-14T08:09:41.513Z,53.00
2018-07-14T08:12:10.319Z,53.80
2018-07-14T08:14:39.125Z,54.10
2018-07-14T08:17:08.251Z,52.80
2018-07-14T08:19:37.595Z,51.80
2018-07-14T08:22:06.668Z,51.50
2018-07-14T08:24:35.461Z,50.50
2018-07-14T08:27:04.554Z,52.00
2018-07-14T08:29:33.355Z,51.70
2018-07-14T08:32:02.160Z,52.00
2018-07-14T08:34:30.981Z,51.30
2018-07-14T08:36:59.799Z,51.10
2018-07-14T08:39:28.598Z,50.30
2018-07-14T08:41:57.397Z,49.70
2018-07-14T08:44:26.196Z,50.70
2018-07-14T08:49:23.492Z,49.50
2018-07-14T08:51:52.301Z,49.90
2018-07-14T08:54:21.114Z,49.80
2018-07-14T08:56:49.917Z,49.40
2018-07-14T08:59:18.721Z,49.70
2018-07-14T09:01:47.551Z,49.60
2018-07-14T09:04:16.366Z,49.30
2018-07-14T09:06:45.179Z,49.50
2018-07-14T09:09:14.001Z,49.60
2018-07-14T09:11:42.795Z,50.00
2018-07-14T09:14:11.609Z,49.20
2018-07-14T09:16:40.416Z,48.20
2018-07-14T09:19:09.440Z,47.40
2018-07-14T09:21:38.265Z,46.90
2018-07-14T09:24:07.083Z,46.50
2018-07-14T09:26:35.954Z,47.20
2018-07-14T09:29:04.783Z,47.20
2018-07-14T09:31:33.599Z,47.10
2018-07-14T09:34:02.404Z,47.90
2018-07-14T09:36:31.202Z,47.40
2018-07-14T09:39:00.021Z,47.70
2018-07-14T09:41:28.842Z,50.60
2018-07-14T09:43:57.694Z,49.90
2018-07-14T09:46:26.462Z,51.60
2018-07-14T09:48:55.270Z,53.60
2018-07-14T09:51:24.074Z,53.30
2018-07-14T09:53:53.559Z,51.50
2018-07-14T09:56:23.730Z,50.70
2018-07-14T09:58:52.541Z,50.30
2018-07-14T10:01:21.350Z,49.30
2018-07-14T10:03:50.172Z,47.80
2018-07-14T10:06:18.966Z,47.30
2018-07-14T10:08:47.814Z,47.00
2018-07-14T10:11:16.606Z,47.10
2018-07-14T10:13:45.432Z,47.30
2018-07-14T10:16:14.232Z,47.30
2018-07-14T10:18:43.233Z,47.10
2018-07-14T10:21:12.049Z,47.60
2018-07-14T10:23:40.852Z,46.90
2018-07-14T10:26:09.729Z,47.40
2018-07-14T10:28:38.695Z,47.70
2018-07-14T10:31:07.631Z,46.80
2018-07-14T10:33:36.482Z,47.60
2018-07-14T10:36:05.236Z,50.00
2018-07-14T10:38:34.696Z,49.20
2018-07-14T10:41:03.503Z,49.90
2018-07-14T10:43:32.302Z,50.40
2018-07-14T10:46:01.834Z,50.00
2018-07-14T10:48:30.732Z,50.00
2018-07-14T10:50:59.551Z,49.90
2018-07-14T10:53:28.371Z,50.40
2018-07-14T10:55:57.186Z,50.20
2018-07-14T10:58:25.991Z,50.90
2018-07-14T11:00:54.803Z,51.30
2018-07-14T11:03:23.632Z,51.20
2018-07-14T11:05:52.458Z,52.00
2018-07-14T11:08:21.265Z,51.30
2018-07-14T11:10:50.079Z,50.80
2018-07-14T11:13:18.875Z,51.30
2018-07-14T11:15:47.705Z,53.80
2018-07-14T11:18:16.519Z,53.90
2018-07-14T11:20:45.341Z,53.60
2018-07-14T11:23:14.134Z,53.80
2018-07-14T11:25:42.942Z,54.80
2018-07-14T11:28:12.549Z,54.70
2018-07-14T11:30:41.363Z,54.10
2018-07-14T11:33:10.457Z,55.30
2018-07-14T11:35:39.262Z,55.50
2018-07-14T11:38:08.211Z,55.00
2018-07-14T11:40:37.029Z,55.00
2018-07-14T11:43:06.023Z,56.30
2018-07-14T11:45:34.844Z,55.50
2018-07-14T11:48:03.677Z,55.80
2018-07-14T11:50:32.503Z,54.80
2018-07-14T11:53:01.270Z,54.90
2018-07-14T11:55:30.806Z,55.10
2018-07-14T11:57:59.647Z,55.80
2018-07-14T12:00:28.461Z,55.80
2018-07-14T12:02:57.343Z,55.50
2018-07-14T12:05:26.148Z,55.50
2018-07-14T12:07:55.105Z,54.60
2018-07-14T12:10:23.897Z,54.60
2018-07-14T12:12:52.739Z,54.50
2018-07-14T12:15:21.542Z,54.10
2018-07-14T12:17:50.347Z,53.80
2018-07-14T12:20:19.163Z,54.50
2018-07-14T12:22:48.051Z,54.40
2018-07-14T12:25:16.898Z,55.20
2018-07-14T12:27:45.711Z,55.60
2018-07-14T12:30:14.549Z,55.40
2018-07-14T12:32:43.305Z,54.80
2018-07-14T12:35:12.123Z,54.90
2018-07-14T12:37:40.929Z,54.30
2018-07-14T12:40:09.739Z,54.80
2018-07-14T12:42:38.549Z,54.80
2018-07-14T12:45:07.523Z,54.00
2018-07-14T12:47:36.343Z,54.20
2018-07-14T12:50:05.142Z,54.20
2018-07-14T12:52:33.937Z,54.00
2018-07-14T12:55:02.744Z,53.70
2018-07-14T12:57:31.555Z,54.60
2018-07-14T13:00:00.404Z,54.40
2018-07-14T13:02:29.194Z,54.20
2018-07-14T13:04:58.992Z,53.90
2018-07-14T13:07:28.857Z,54.10
2018-07-14T13:09:57.671Z,55.10
2018-07-14T13:12:26.487Z,56.10
2018-07-14T13:14:55.819Z,56.20
2018-07-14T13:17:24.619Z,56.80
2018-07-14T13:19:53.447Z,56.80
2018-07-14T13:22:22.255Z,56.40
2018-07-14T13:24:51.068Z,55.20
2018-07-14T13:27:19.858Z,56.00
2018-07-14T13:29:48.680Z,56.90
2018-07-14T13:32:17.481Z,57.70
2018-07-14T13:34:46.286Z,57.60
2018-07-14T13:37:15.177Z,57.00
2018-07-14T13:39:43.965Z,56.60
2018-07-14T13:42:12.762Z,56.60
2018-07-14T13:44:41.565Z,56.70
2018-07-14T13:47:10.366Z,56.70
2018-07-14T13:49:39.318Z,55.90
2018-07-14T13:52:08.274Z,55.10
2018-07-14T13:54:37.085Z,54.80
2018-07-14T13:57:06.087Z,54.40
2018-07-14T13:59:34.929Z,54.60
2018-07-14T14:02:03.745Z,54.10
2018-07-14T14:04:32.547Z,54.40
2018-07-14T14:07:01.351Z,54.50
2018-07-14T14:09:30.203Z,54.10
2018-07-14T14:11:58.961Z,54.10
2018-07-14T14:14:27.764Z,55.30
2018-07-14T14:16:56.570Z,56.20
2018-07-14T14:19:25.374Z,56.10
2018-07-14T14:21:54.195Z,55.40
2018-07-14T14:24:22.999Z,55.70
2018-07-14T14:26:51.813Z,56.70
2018-07-14T14:29:21.165Z,57.00
2018-07-14T14:31:49.962Z,56.70
2018-07-14T14:34:19.367Z,56.40
2018-07-14T14:36:48.191Z,56.70
2018-07-14T14:39:16.986Z,56.90
2018-07-14T14:41:45.786Z,56.90
2018-07-14T14:44:14.590Z,56.00
2018-07-14T14:46:43.397Z,55.90
2018-07-14T14:49:12.198Z,55.30
2018-07-14T14:51:40.998Z,55.50
2018-07-14T14:54:09.932Z,55.70
2018-07-14T14:56:39.302Z,56.00
2018-07-14T14:59:08.130Z,55.70
2018-07-14T15:01:36.935Z,56.40
2018-07-14T15:04:06.079Z,55.80
2018-07-14T15:06:34.899Z,56.10
2018-07-14T15:09:04.677Z,56.00
2018-07-14T15:11:33.497Z,56.30
2018-07-14T15:14:02.568Z,56.10
2018-07-14T15:16:31.569Z,56.80
2018-07-14T15:19:00.350Z,56.50
2018-07-14T15:21:29.228Z,56.20
2018-07-14T15:23:58.035Z,56.20
2018-07-14T15:26:26.848Z,55.70
2018-07-14T15:28:55.662Z,56.40
2018-07-14T15:31:24.578Z,55.80
2018-07-14T15:33:53.401Z,56.00
2018-07-14T15:36:22.215Z,56.50
2018-07-14T15:38:51.013Z,55.90
2018-07-14T15:41:19.823Z,55.50
2018-07-14T15:43:48.631Z,56.20
2018-07-14T15:46:17.448Z,57.60
2018-07-14T15:48:46.237Z,58.30
2018-07-14T15:51:15.069Z,58.40
2018-07-14T15:53:43.883Z,57.70
2018-07-14T15:56:12.699Z,58.00
2018-07-14T15:58:41.567Z,58.20
2018-07-14T16:03:38.919Z,58.10
2018-07-14T16:06:07.722Z,58.00
2018-07-14T16:08:36.555Z,58.20
2018-07-14T16:11:05.823Z,58.10
2018-07-14T16:13:34.631Z,57.70
2018-07-14T16:16:03.437Z,58.40
2018-07-14T16:21:00.743Z,57.90
2018-07-14T16:23:29.579Z,58.30
2018-07-14T16:25:58.387Z,58.10
2018-07-14T16:28:27.213Z,58.90
2018-07-14T16:30:56.011Z,58.60
2018-07-14T16:33:24.805Z,58.90
2018-07-14T16:35:53.631Z,58.80
2018-07-14T16:38:22.646Z,58.80
2018-07-14T16:40:51.464Z,59.00
2018-07-14T16:43:20.277Z,59.20
2018-07-14T16:45:49.093Z,58.80
2018-07-14T16:48:17.907Z,58.40
2018-07-14T16:50:46.728Z,59.00
2018-07-14T16:53:15.540Z,59.10
2018-07-14T16:55:44.346Z,59.50
2018-07-14T16:58:13.141Z,60.00
2018-07-14T17:00:41.956Z,59.90
2018-07-14T17:03:10.763Z,60.70
2018-07-14T17:05:39.563Z,61.40
2018-07-14T17:08:08.391Z,60.80
2018-07-14T17:10:37.203Z,62.20
2018-07-14T17:13:06.021Z,62.90
2018-07-14T17:15:34.822Z,62.90
2018-07-14T17:18:03.678Z,62.30
2018-07-14T17:20:32.490Z,62.10
2018-07-14T17:23:01.310Z,62.20
2018-07-14T17:25:30.106Z,62.30
2018-07-14T17:27:59.035Z,62.70
2018-07-14T17:30:27.841Z,62.90
2018-07-14T17:32:59.217Z,63.10
2018-07-14T17:35:28.395Z,63.20
2018-07-14T17:37:57.175Z,62.70
2018-07-14T17:40:25.996Z,62.80
2018-07-14T17:42:54.801Z,63.00
2018-07-14T17:45:23.607Z,63.60
2018-07-14T17:47:52.455Z,63.50
2018-07-14T17:50:21.671Z,63.80
2018-07-14T17:52:51.218Z,64.00
2018-07-14T17:55:20.107Z,63.90
2018-07-14T17:57:48.993Z,63.90
2018-07-14T18:00:17.806Z,64.00
2018-07-14T18:02:46.613Z,64.60
2018-07-14T18:05:15.467Z,65.00
2018-07-14T18:07:45.574Z,65.10
2018-07-14T18:10:14.381Z,65.00
2018-07-14T18:12:43.215Z,65.30
2018-07-14T18:15:12.031Z,65.40
2018-07-14T18:17:40.853Z,65.60
2018-07-14T18:20:09.666Z,65.90
2018-07-14T18:22:38.476Z,66.80
2018-07-14T18:25:07.291Z,66.90
2018-07-14T18:27:36.104Z,66.90
2018-07-14T18:30:05.050Z,67.10
2018-07-14T18:32:33.849Z,67.40
2018-07-14T18:35:02.654Z,68.00
2018-07-14T18:37:31.454Z,68.00
2018-07-14T18:40:00.265Z,68.00
2018-07-14T18:42:29.140Z,68.40
2018-07-14T18:44:57.919Z,68.80
2018-07-14T18:47:26.736Z,69.30
2018-07-14T18:49:55.539Z,69.40
2018-07-14T18:52:24.444Z,70.10
2018-07-14T18:54:53.171Z,70.50
2018-07-14T18:57:22.034Z,71.00
2018-07-14T18:59:50.859Z,71.20
2018-07-14T19:02:19.677Z,71.60
2018-07-14T19:04:48.494Z,71.90
2018-07-14T19:07:17.293Z,72.20
2018-07-14T19:09:46.110Z,72.70
2018-07-14T19:12:15.253Z,73.30
2018-07-14T19:14:44.241Z,73.90
2018-07-14T19:17:13.007Z,74.10
2018-07-14T19:19:41.846Z,74.50
2018-07-14T19:22:10.642Z,75.20
2018-07-14T19:24:39.520Z,75.40
2018-07-14T19:27:08.331Z,75.90
2018-07-14T19:29:37.141Z,76.50
2018-07-14T19:32:06.319Z,76.90
2018-07-14T19:34:35.126Z,77.40
2018-07-14T19:42:01.354Z,78.80
2018-07-14T19:44:30.154Z,79.00
2018-07-14T19:46:58.977Z,79.30
2018-07-14T19:49:27.794Z,79.70
2018-07-14T19:51:56.634Z,80.10
2018-07-14T19:54:25.451Z,80.50
2018-07-14T19:56:54.278Z,80.90
2018-07-14T19:59:23.094Z,81.20
2018-07-14T20:01:51.915Z,81.60
2018-07-14T20:04:20.839Z,82.10
2018-07-14T20:06:49.728Z,82.50
2018-07-14T20:09:19.114Z,82.90
2018-07-14T20:11:47.942Z,83.30
2018-07-14T20:14:16.768Z,83.40
2018-07-14T20:16:45.578Z,83.90
2018-07-14T20:19:14.394Z,84.30
2018-07-14T20:21:43.231Z,84.40
2018-07-14T20:24:12.041Z,84.80
2018-07-14T20:26:40.862Z,85.40
2018-07-14T20:29:09.679Z,85.70
2018-07-14T20:34:07.115Z,87.20
2018-07-14T20:36:36.147Z,86.70
2018-07-14T20:39:05.928Z,87.30
2018-07-14T20:41:34.804Z,87.00
2018-07-14T20:44:03.881Z,86.70
2018-07-14T20:46:32.704Z,86.40
2018-07-14T20:49:01.506Z,86.20
2018-07-14T20:53:58.851Z,87.30
2018-07-14T20:56:27.658Z,86.90
2018-07-14T20:58:56.475Z,86.60
2018-07-14T21:01:25.299Z,87.90
2018-07-14T21:03:54.199Z,87.30
2018-07-14T21:06:22.997Z,87.30
2018-07-14T21:08:51.814Z,87.50
2018-07-14T21:11:20.619Z,87.50
2018-07-14T21:13:49.447Z,86.80
2018-07-14T21:16:18.246Z,87.00
2018-07-14T21:18:47.063Z,87.00
2018-07-14T21:21:15.961Z,87.40
2018-07-14T21:23:44.749Z,87.90
2018-07-14T21:26:13.555Z,87.80
2018-07-14T21:28:42.483Z,88.10
2018-07-14T21:31:11.286Z,88.30
2018-07-14T21:33:40.103Z,87.80
2018-07-14T21:36:08.898Z,88.20
2018-07-14T21:38:37.814Z,87.90
2018-07-14T21:41:06.910Z,88.20
2018-07-14T21:43:35.727Z,88.70
2018-07-14T21:46:05.003Z,88.90
2018-07-14T21:48:34.615Z,88.80
2018-07-14T21:51:03.451Z,89.10
2018-07-14T21:53:32.485Z,89.30
2018-07-14T21:56:01.528Z,89.40
2018-07-14T21:58:30.334Z,89.90
2018-07-14T22:01:04.834Z,90.10
2018-07-14T22:03:34.594Z,90.30
2018-07-14T22:06:04.023Z,90.30
2018-07-14T22:08:32.822Z,90.40
2018-07-14T22:11:01.884Z,90.70
2018-07-14T22:13:30.702Z,90.70
2018-07-14T22:15:59.512Z,90.90
2018-07-14T22:18:28.336Z,91.10
2018-07-14T22:20:57.135Z,91.40
2018-07-14T22:23:26.048Z,91.50
2018-07-14T22:25:54.860Z,91.60
2018-07-14T22:28:23.645Z,91.60
2018-07-14T22:30:52.460Z,91.70
2018-07-14T22:33:21.257Z,91.70
2018-07-14T22:35:50.078Z,91.90
2018-07-14T22:38:18.902Z,92.10
2018-07-14T22:40:47.704Z,92.30
2018-07-14T22:43:16.512Z,92.40
2018-07-14T22:45:45.311Z,92.40
2018-07-14T22:48:14.209Z,92.40
2018-07-14T22:50:43.001Z,92.50
2018-07-14T22:53:11.824Z,92.60
2018-07-14T22:55:40.619Z,92.90
2018-07-14T22:58:09.417Z,93.10
2018-07-14T23:00:38.234Z,93.10
2018-07-14T23:03:07.244Z,93.30
2018-07-14T23:05:36.116Z,93.40
2018-07-14T23:08:04.850Z,93.70
2018-07-14T23:10:33.667Z,94.00
2018-07-14T23:13:02.451Z,94.10
2018-07-14T23:15:31.249Z,94.20
2018-07-14T23:18:00.058Z,94.30
2018-07-14T23:20:28.872Z,94.50
2018-07-14T23:22:57.673Z,94.90
2018-07-14T23:25:26.481Z,95.00
2018-07-14T23:27:55.284Z,95.10
2018-07-14T23:30:24.084Z,95.20
2018-07-14T23:32:52.874Z,95.30
2018-07-14T23:35:21.691Z,95.40
2018-07-14T23:37:50.888Z,95.60
2018-07-14T23:40:19.708Z,95.70
2018-07-14T23:42:48.498Z,95.90
2018-07-14T23:45:17.302Z,96.10
2018-07-14T23:47:46.101Z,96.10
2018-07-14T23:50:14.925Z,96.30
2018-07-14T23:52:43.718Z,96.40
2018-07-14T23:55:12.509Z,96.40
2018-07-14T23:57:41.336Z,96.60
